Terminal Aerodrome Forecast
Issued by NWS Wilmington, OH

Current Version | Previous Version | Graphics & Text | Print | Product List | Glossary On
Versions: 1 2 3 4 5 6 7 8 9 10 11 12 13 14 15 16 17 18 19 20 21
000
FTUS41 KILN 131400 AAB
TAFDAY
TAF AMD
KDAY 131430Z 1315/1412 33012KT P6SM BKN018
     FM131600 31012KT P6SM SCT035
     FM132300 02004KT P6SM SKC=

USA.gov is the U.S. government's official web portal to all federal, state and local government web resources and services.